sensor_id;sensor_type;location;lat;lon;timestamp;P1;P4;P2;P0;N10;N4;N25;N1;N05;TS
85348;SPS30;75763;48.142;16.392;2024-01-30T00:03:27;5.2;;5.3;4.8;;;;;;
85348;SPS30;75763;48.142;16.392;2024-01-30T00:08:27;5.5;;5.7;5.1;;;;;;
85348;SPS30;75763;48.142;16.392;2024-01-30T00:13:27;5.5;;5.6;5.1;;;;;;
85348;SPS30;75763;48.142;16.392;2024-01-30T00:18:27;4.8;;5.0;4.5;;;;;;
85348;SPS30;75763;48.142;16.392;2024-01-30T00:23:27;6.0;;6.1;5.6;;;;;;
85348;SPS30;75763;48.142;16.392;2024-01-30T00:28:27;5.6;;5.7;5.3;;;;;;
85348;SPS30;75763;48.142;16.392;2024-01-30T00:33:27;5.8;;5.9;5.4;;;;;;
85348;SPS30;75763;48.142;16.392;2024-01-30T00:38:27;4.2;;4.3;4.0;;;;;;
85348;SPS30;75763;48.142;16.392;2024-01-30T00:43:27;6.0;;6.2;5.6;;;;;;
85348;SPS30;75763;48.142;16.392;2024-01-30T00:48:27;5.2;;5.4;4.9;;;;;;
85348;SPS30;75763;48.142;16.392;2024-01-30T00:53:27;5.6;;5.7;5.3;;;;;;
85348;SPS30;75763;48.142;16.392;2024-01-30T00:58:27;5.4;;5.4;5.1;;;;;;
85348;SPS30;75763;48.142;16.392;2024-01-30T01:03:27;5.5;;5.5;5.2;;;;;;
85348;SPS30;75763;48.142;16.392;2024-01-30T01:08:27;4.5;;4.6;4.2;;;;;;
85348;SPS30;75763;48.142;16.392;2024-01-30T01:13:27;5.1;;5.2;4.8;;;;;;
85348;SPS30;75763;48.142;16.392;2024-01-30T01:18:27;5.4;;5.6;5.0;;;;;;
85348;SPS30;75763;48.142;16.392;2024-01-30T01:23:27;4.6;;4.7;4.4;;;;;;
85348;SPS30;75763;48.142;16.392;2024-01-30T01:28:27;5.2;;5.3;4.8;;;;;;
85348;SPS30;75763;48.142;16.392;2024-01-30T01:33:27;5.5;;5.6;5.1;;;;;;
85348;SPS30;75763;48.142;16.392;2024-01-30T01:38:27;5.1;;5.2;4.8;;;;;;
85348;SPS30;75763;48.142;16.392;2024-01-30T01:43:27;6.1;;6.2;5.7;;;;;;
85348;SPS30;75763;48.142;16.392;2024-01-30T01:48:27;5.4;;5.4;5.1;;;;;;
85348;SPS30;75763;48.142;16.392;2024-01-30T01:53:28;5.9;;5.9;5.5;;;;;;
85348;SPS30;75763;48.142;16.392;2024-01-30T01:58:27;5.4;;5.5;5.0;;;;;;
85348;SPS30;75763;48.142;16.392;2024-01-30T02:03:27;5.5;;5.6;5.1;;;;;;
85348;SPS30;75763;48.142;16.392;2024-01-30T02:08:27;5.1;;5.2;4.8;;;;;;
85348;SPS30;75763;48.142;16.392;2024-01-30T02:13:27;5.0;;5.0;4.8;;;;;;
85348;SPS30;75763;48.142;16.392;2024-01-30T02:18:27;5.2;;5.3;4.9;;;;;;
85348;SPS30;75763;48.142;16.392;2024-01-30T02:23:27;4.0;;4.1;3.7;;;;;;
85348;SPS30;75763;48.142;16.392;2024-01-30T02:28:27;5.8;;5.9;5.4;;;;;;
85348;SPS30;75763;48.142;16.392;2024-01-30T02:33:27;5.3;;5.4;5.0;;;;;;
85348;SPS30;75763;48.142;16.392;2024-01-30T02:38:27;4.5;;4.6;4.2;;;;;;
85348;SPS30;75763;48.142;16.392;2024-01-30T02:43:27;4.5;;4.6;4.2;;;;;;
85348;SPS30;75763;48.142;16.392;2024-01-30T02:48:27;5.1;;5.2;4.8;;;;;;
85348;SPS30;75763;48.142;16.392;2024-01-30T02:53:27;4.7;;4.8;4.4;;;;;;
85348;SPS30;75763;48.142;16.392;2024-01-30T02:58:27;5.0;;5.2;4.7;;;;;;
85348;SPS30;75763;48.142;16.392;2024-01-30T03:03:27;5.2;;5.3;4.9;;;;;;
85348;SPS30;75763;48.142;16.392;2024-01-30T03:08:27;5.9;;6.0;5.5;;;;;;
85348;SPS30;75763;48.142;16.392;2024-01-30T03:13:27;4.9;;4.9;4.6;;;;;;
85348;SPS30;75763;48.142;16.392;2024-01-30T03:18:27;5.0;;5.2;4.7;;;;;;
85348;SPS30;75763;48.142;16.392;2024-01-30T03:23:27;4.9;;5.0;4.6;;;;;;
85348;SPS30;75763;48.142;16.392;2024-01-30T03:28:27;5.2;;5.3;4.9;;;;;;
85348;SPS30;75763;48.142;16.392;2024-01-30T03:33:27;5.0;;5.1;4.7;;;;;;
85348;SPS30;75763;48.142;16.392;2024-01-30T03:38:27;5.5;;5.6;5.2;;;;;;
85348;SPS30;75763;48.142;16.392;2024-01-30T03:43:27;5.0;;5.1;4.6;;;;;;
85348;SPS30;75763;48.142;16.392;2024-01-30T03:48:28;4.3;;4.4;4.0;;;;;;
85348;SPS30;75763;48.142;16.392;2024-01-30T03:53:27;5.9;;6.1;5.5;;;;;;
85348;SPS30;75763;48.142;16.392;2024-01-30T03:58:27;4.3;;4.4;4.0;;;;;;
85348;SPS30;75763;48.142;16.392;2024-01-30T04:03:27;4.5;;4.6;4.2;;;;;;
85348;SPS30;75763;48.142;16.392;2024-01-30T04:08:27;4.8;;4.9;4.5;;;;;;
85348;SPS30;75763;48.142;16.392;2024-01-30T04:13:28;5.6;;5.7;5.3;;;;;;
85348;SPS30;75763;48.142;16.392;2024-01-30T04:18:27;5.2;;5.3;4.9;;;;;;
85348;SPS30;75763;48.142;16.392;2024-01-30T04:23:27;5.3;;5.4;4.9;;;;;;
85348;SPS30;75763;48.142;16.392;2024-01-30T04:28:27;4.4;;4.5;4.2;;;;;;
85348;SPS30;75763;48.142;16.392;2024-01-30T04:33:27;5.9;;6.1;5.6;;;;;;
85348;SPS30;75763;48.142;16.392;2024-01-30T04:38:27;6.2;;6.4;5.8;;;;;;
85348;SPS30;75763;48.142;16.392;2024-01-30T04:43:27;5.1;;5.2;4.9;;;;;;
85348;SPS30;75763;48.142;16.392;2024-01-30T04:48:27;6.2;;6.4;5.8;;;;;;
85348;SPS30;75763;48.142;16.392;2024-01-30T04:53:27;6.9;;7.0;6.5;;;;;;
85348;SPS30;75763;48.142;16.392;2024-01-30T04:58:27;5.2;;5.3;4.9;;;;;;
85348;SPS30;75763;48.142;16.392;2024-01-30T05:03:27;5.1;;5.2;4.7;;;;;;
85348;SPS30;75763;48.142;16.392;2024-01-30T05:08:28;5.0;;5.1;4.6;;;;;;
85348;SPS30;75763;48.142;16.392;2024-01-30T05:13:27;5.2;;5.3;4.9;;;;;;
85348;SPS30;75763;48.142;16.392;2024-01-30T05:18:27;5.4;;5.5;5.0;;;;;;
85348;SPS30;75763;48.142;16.392;2024-01-30T05:23:27;5.8;;5.9;5.4;;;;;;
85348;SPS30;75763;48.142;16.392;2024-01-30T05:28:28;6.0;;6.1;5.7;;;;;;
85348;SPS30;75763;48.142;16.392;2024-01-30T05:33:27;5.1;;5.2;4.7;;;;;;
85348;SPS30;75763;48.142;16.392;2024-01-30T05:38:30;6.8;;6.9;6.3;;;;;;
85348;SPS30;75763;48.142;16.392;2024-01-30T05:43:27;5.9;;6.0;5.6;;;;;;
85348;SPS30;75763;48.142;16.392;2024-01-30T05:48:27;4.8;;4.9;4.5;;;;;;
85348;SPS30;75763;48.142;16.392;2024-01-30T05:53:27;5.5;;5.7;5.1;;;;;;
85348;SPS30;75763;48.142;16.392;2024-01-30T05:58:27;5.7;;5.8;5.4;;;;;;
85348;SPS30;75763;48.142;16.392;2024-01-30T06:03:27;6.3;;6.4;5.9;;;;;;
85348;SPS30;75763;48.142;16.392;2024-01-30T06:08:27;5.7;;5.9;5.3;;;;;;
85348;SPS30;75763;48.142;16.392;2024-01-30T06:13:27;4.8;;5.0;4.5;;;;;;
85348;SPS30;75763;48.142;16.392;2024-01-30T06:18:27;5.0;;5.1;4.7;;;;;;
85348;SPS30;75763;48.142;16.392;2024-01-30T06:23:27;5.7;;5.8;5.3;;;;;;
85348;SPS30;75763;48.142;16.392;2024-01-30T06:28:27;5.3;;5.4;4.9;;;;;;
85348;SPS30;75763;48.142;16.392;2024-01-30T06:33:27;4.6;;4.7;4.4;;;;;;
85348;SPS30;75763;48.142;16.392;2024-01-30T06:38:27;4.6;;4.7;4.3;;;;;;
85348;SPS30;75763;48.142;16.392;2024-01-30T06:43:27;5.3;;5.4;4.9;;;;;;
85348;SPS30;75763;48.142;16.392;2024-01-30T06:48:27;6.5;;6.7;6.1;;;;;;
85348;SPS30;75763;48.142;16.392;2024-01-30T06:53:27;5.3;;5.4;4.9;;;;;;
85348;SPS30;75763;48.142;16.392;2024-01-30T06:58:27;5.4;;5.6;5.1;;;;;;
85348;SPS30;75763;48.142;16.392;2024-01-30T07:03:27;6.1;;6.2;5.7;;;;;;
85348;SPS30;75763;48.142;16.392;2024-01-30T07:08:27;5.2;;5.3;4.9;;;;;;
85348;SPS30;75763;48.142;16.392;2024-01-30T07:13:28;6.6;;6.6;6.3;;;;;;
85348;SPS30;75763;48.142;16.392;2024-01-30T07:18:27;6.4;;6.5;6.0;;;;;;
85348;SPS30;75763;48.142;16.392;2024-01-30T07:23:27;7.6;;7.6;7.2;;;;;;
85348;SPS30;75763;48.142;16.392;2024-01-30T07:28:27;210.0;;210.0;200.2;;;;;;
85348;SPS30;75763;48.142;16.392;2024-01-30T07:33:27;11.2;;11.2;10.7;;;;;;
85348;SPS30;75763;48.142;16.392;2024-01-30T07:38:28;12.3;;12.3;11.8;;;;;;
85348;SPS30;75763;48.142;16.392;2024-01-30T07:43:27;2587.2;;5298.7;387.3;;;;;;
85348;SPS30;75763;48.142;16.392;2024-01-30T07:48:27;1621.1;;3137.0;383.0;;;;;;
85348;SPS30;75763;48.142;16.392;2024-01-30T07:53:27;2928.5;;6337.4;177.9;;;;;;
85348;SPS30;75763;48.142;16.392;2024-01-30T07:58:27;2131.9;;4670.0;86.2;;;;;;
85348;SPS30;75763;48.142;16.392;2024-01-30T08:03:27;1959.1;;4290.2;80.1;;;;;;
85348;SPS30;75763;48.142;16.392;2024-01-30T08:08:27;1323.5;;2896.6;55.6;;;;;;
85348;SPS30;75763;48.142;16.392;2024-01-30T08:13:28;1209.3;;2647.9;49.8;;;;;;
85348;SPS30;75763;48.142;16.392;2024-01-30T08:18:27;1131.0;;2474.0;48.4;;;;;;
85348;SPS30;75763;48.142;16.392;2024-01-30T08:23:27;1243.3;;2720.7;52.3;;;;;;
85348;SPS30;75763;48.142;16.392;2024-01-30T08:28:27;1212.5;;2648.8;54.5;;;;;;
85348;SPS30;75763;48.142;16.392;2024-01-30T08:33:27;997.5;;2168.5;53.0;;;;;;
85348;SPS30;75763;48.142;16.392;2024-01-30T08:38:27;970.5;;2121.0;43.1;;;;;;
85348;SPS30;75763;48.142;16.392;2024-01-30T08:43:27;1020.7;;2217.2;55.5;;;;;;
85348;SPS30;75763;48.142;16.392;2024-01-30T08:48:27;810.5;;1596.9;169.6;;;;;;
85348;SPS30;75763;48.142;16.392;2024-01-30T08:53:27;412.1;;412.1;392.9;;;;;;
85348;SPS30;75763;48.142;16.392;2024-01-30T08:58:27;307.5;;307.5;293.2;;;;;;
85348;SPS30;75763;48.142;16.392;2024-01-30T09:03:27;180.9;;180.9;172.5;;;;;;
85348;SPS30;75763;48.142;16.392;2024-01-30T09:08:27;85.2;;85.2;81.3;;;;;;
85348;SPS30;75763;48.142;16.392;2024-01-30T09:13:27;27.2;;27.2;26.0;;;;;;
85348;SPS30;75763;48.142;16.392;2024-01-30T09:18:27;14.3;;14.3;13.6;;;;;;
85348;SPS30;75763;48.142;16.392;2024-01-30T09:23:27;10.5;;10.5;10.0;;;;;;
85348;SPS30;75763;48.142;16.392;2024-01-30T09:28:28;9.1;;9.1;8.7;;;;;;
85348;SPS30;75763;48.142;16.392;2024-01-30T09:33:27;7.9;;7.9;7.5;;;;;;
85348;SPS30;75763;48.142;16.392;2024-01-30T09:38:27;7.2;;7.2;6.9;;;;;;
85348;SPS30;75763;48.142;16.392;2024-01-30T09:43:27;6.5;;6.5;6.2;;;;;;
85348;SPS30;75763;48.142;16.392;2024-01-30T09:48:27;6.1;;6.1;5.8;;;;;;
85348;SPS30;75763;48.142;16.392;2024-01-30T09:53:27;6.1;;6.1;5.8;;;;;;
85348;SPS30;75763;48.142;16.392;2024-01-30T09:58:27;5.6;;5.6;5.4;;;;;;
85348;SPS30;75763;48.142;16.392;2024-01-30T10:03:27;6.0;;6.1;5.7;;;;;;
85348;SPS30;75763;48.142;16.392;2024-01-30T10:08:27;5.0;;5.0;4.7;;;;;;
85348;SPS30;75763;48.142;16.392;2024-01-30T10:13:27;5.8;;5.8;5.5;;;;;;
85348;SPS30;75763;48.142;16.392;2024-01-30T10:18:27;5.8;;5.8;5.5;;;;;;
85348;SPS30;75763;48.142;16.392;2024-01-30T10:23:28;5.3;;5.3;5.0;;;;;;
85348;SPS30;75763;48.142;16.392;2024-01-30T10:28:28;5.0;;5.0;4.7;;;;;;
85348;SPS30;75763;48.142;16.392;2024-01-30T10:33:27;6.5;;6.5;6.2;;;;;;
85348;SPS30;75763;48.142;16.392;2024-01-30T10:38:28;5.5;;5.7;5.2;;;;;;
85348;SPS30;75763;48.142;16.392;2024-01-30T10:43:30;5.1;;5.1;4.8;;;;;;
85348;SPS30;75763;48.142;16.392;2024-01-30T10:48:29;5.1;;5.1;4.8;;;;;;
85348;SPS30;75763;48.142;16.392;2024-01-30T10:53:27;4.3;;4.3;4.1;;;;;;
85348;SPS30;75763;48.142;16.392;2024-01-30T10:58:27;4.2;;4.3;3.9;;;;;;
85348;SPS30;75763;48.142;16.392;2024-01-30T11:03:27;4.4;;4.4;4.2;;;;;;
85348;SPS30;75763;48.142;16.392;2024-01-30T11:08:27;4.5;;4.5;4.3;;;;;;
85348;SPS30;75763;48.142;16.392;2024-01-30T11:13:28;5.4;;5.4;5.0;;;;;;
85348;SPS30;75763;48.142;16.392;2024-01-30T11:18:28;3.9;;3.9;3.6;;;;;;
85348;SPS30;75763;48.142;16.392;2024-01-30T11:23:28;3.9;;4.0;3.7;;;;;;
85348;SPS30;75763;48.142;16.392;2024-01-30T11:28:31;4.3;;4.4;4.0;;;;;;
85348;SPS30;75763;48.142;16.392;2024-01-30T11:33:28;4.4;;4.5;4.1;;;;;;
85348;SPS30;75763;48.142;16.392;2024-01-30T11:38:27;4.0;;4.2;3.7;;;;;;
85348;SPS30;75763;48.142;16.392;2024-01-30T11:43:27;4.9;;4.9;4.6;;;;;;
85348;SPS30;75763;48.142;16.392;2024-01-30T11:48:27;4.2;;4.3;4.0;;;;;;
85348;SPS30;75763;48.142;16.392;2024-01-30T11:53:28;4.5;;4.6;4.2;;;;;;
85348;SPS30;75763;48.142;16.392;2024-01-30T11:58:27;4.4;;4.6;4.2;;;;;;
85348;SPS30;75763;48.142;16.392;2024-01-30T12:03:27;4.9;;5.0;4.5;;;;;;
85348;SPS30;75763;48.142;16.392;2024-01-30T12:08:27;4.4;;4.5;4.1;;;;;;
85348;SPS30;75763;48.142;16.392;2024-01-30T12:13:27;4.2;;4.3;4.0;;;;;;
85348;SPS30;75763;48.142;16.392;2024-01-30T12:18:27;3.3;;3.4;3.1;;;;;;
85348;SPS30;75763;48.142;16.392;2024-01-30T12:23:27;4.5;;4.6;4.3;;;;;;
85348;SPS30;75763;48.142;16.392;2024-01-30T12:28:27;4.0;;4.1;3.7;;;;;;
85348;SPS30;75763;48.142;16.392;2024-01-30T12:33:27;4.2;;4.3;3.9;;;;;;
85348;SPS30;75763;48.142;16.392;2024-01-30T12:38:27;5.1;;5.3;4.8;;;;;;
85348;SPS30;75763;48.142;16.392;2024-01-30T12:43:27;4.2;;4.3;3.9;;;;;;
85348;SPS30;75763;48.142;16.392;2024-01-30T12:48:27;4.4;;4.5;4.1;;;;;;
85348;SPS30;75763;48.142;16.392;2024-01-30T12:53:27;4.2;;4.2;4.0;;;;;;
85348;SPS30;75763;48.142;16.392;2024-01-30T12:58:27;3.7;;3.7;3.4;;;;;;
85348;SPS30;75763;48.142;16.392;2024-01-30T13:03:27;4.3;;4.4;4.0;;;;;;
85348;SPS30;75763;48.142;16.392;2024-01-30T13:08:27;4.4;;4.4;4.2;;;;;;
85348;SPS30;75763;48.142;16.392;2024-01-30T13:13:27;4.5;;4.6;4.2;;;;;;
85348;SPS30;75763;48.142;16.392;2024-01-30T13:18:27;4.3;;4.4;4.1;;;;;;
85348;SPS30;75763;48.142;16.392;2024-01-30T13:23:27;4.3;;4.4;4.0;;;;;;
85348;SPS30;75763;48.142;16.392;2024-01-30T13:28:27;3.7;;3.8;3.5;;;;;;
85348;SPS30;75763;48.142;16.392;2024-01-30T13:33:27;4.6;;4.6;4.3;;;;;;
85348;SPS30;75763;48.142;16.392;2024-01-30T13:38:27;4.8;;4.9;4.5;;;;;;
85348;SPS30;75763;48.142;16.392;2024-01-30T13:43:27;4.0;;4.1;3.8;;;;;;
85348;SPS30;75763;48.142;16.392;2024-01-30T13:48:27;3.8;;3.8;3.6;;;;;;
85348;SPS30;75763;48.142;16.392;2024-01-30T13:53:27;4.0;;4.2;3.8;;;;;;
85348;SPS30;75763;48.142;16.392;2024-01-30T13:58:27;4.1;;4.3;3.8;;;;;;
85348;SPS30;75763;48.142;16.392;2024-01-30T14:03:27;4.1;;4.2;3.8;;;;;;
85348;SPS30;75763;48.142;16.392;2024-01-30T14:08:27;4.2;;4.3;3.9;;;;;;
85348;SPS30;75763;48.142;16.392;2024-01-30T14:13:27;4.3;;4.4;4.0;;;;;;
85348;SPS30;75763;48.142;16.392;2024-01-30T14:18:27;3.5;;3.5;3.3;;;;;;
85348;SPS30;75763;48.142;16.392;2024-01-30T14:23:27;4.9;;5.0;4.6;;;;;;
85348;SPS30;75763;48.142;16.392;2024-01-30T14:28:27;3.5;;3.6;3.3;;;;;;
85348;SPS30;75763;48.142;16.392;2024-01-30T14:33:27;3.9;;4.0;3.7;;;;;;
85348;SPS30;75763;48.142;16.392;2024-01-30T14:38:27;4.4;;4.5;4.0;;;;;;
85348;SPS30;75763;48.142;16.392;2024-01-30T14:43:27;3.9;;4.1;3.7;;;;;;
85348;SPS30;75763;48.142;16.392;2024-01-30T14:48:27;3.8;;3.9;3.6;;;;;;
85348;SPS30;75763;48.142;16.392;2024-01-30T14:53:27;4.0;;4.0;3.8;;;;;;
85348;SPS30;75763;48.142;16.392;2024-01-30T14:58:27;4.7;;4.8;4.4;;;;;;
85348;SPS30;75763;48.142;16.392;2024-01-30T15:03:28;4.4;;4.5;4.1;;;;;;
85348;SPS30;75763;48.142;16.392;2024-01-30T15:08:27;3.2;;3.3;3.0;;;;;;
85348;SPS30;75763;48.142;16.392;2024-01-30T15:13:27;4.1;;4.1;3.9;;;;;;
85348;SPS30;75763;48.142;16.392;2024-01-30T15:18:27;3.8;;3.9;3.5;;;;;;
85348;SPS30;75763;48.142;16.392;2024-01-30T15:23:27;3.4;;3.5;3.2;;;;;;
85348;SPS30;75763;48.142;16.392;2024-01-30T15:28:34;3.7;;3.8;3.4;;;;;;
85348;SPS30;75763;48.142;16.392;2024-01-30T15:33:27;4.3;;4.5;4.0;;;;;;
85348;SPS30;75763;48.142;16.392;2024-01-30T15:38:27;3.8;;3.9;3.6;;;;;;
85348;SPS30;75763;48.142;16.392;2024-01-30T15:43:27;3.7;;3.8;3.5;;;;;;
85348;SPS30;75763;48.142;16.392;2024-01-30T15:48:27;3.8;;3.9;3.6;;;;;;
85348;SPS30;75763;48.142;16.392;2024-01-30T15:53:27;3.2;;3.2;3.0;;;;;;
85348;SPS30;75763;48.142;16.392;2024-01-30T15:58:27;4.5;;4.6;4.3;;;;;;
85348;SPS30;75763;48.142;16.392;2024-01-30T16:03:27;4.1;;4.2;3.8;;;;;;
85348;SPS30;75763;48.142;16.392;2024-01-30T16:08:27;4.4;;4.5;4.2;;;;;;
85348;SPS30;75763;48.142;16.392;2024-01-30T16:13:27;4.0;;4.1;3.7;;;;;;
85348;SPS30;75763;48.142;16.392;2024-01-30T16:18:27;4.3;;4.4;4.0;;;;;;
85348;SPS30;75763;48.142;16.392;2024-01-30T16:23:27;4.3;;4.3;4.0;;;;;;
85348;SPS30;75763;48.142;16.392;2024-01-30T16:28:27;4.4;;4.5;4.1;;;;;;
85348;SPS30;75763;48.142;16.392;2024-01-30T16:33:27;4.8;;5.0;4.5;;;;;;
85348;SPS30;75763;48.142;16.392;2024-01-30T16:38:27;3.8;;4.0;3.6;;;;;;
85348;SPS30;75763;48.142;16.392;2024-01-30T16:43:27;3.9;;4.0;3.7;;;;;;
85348;SPS30;75763;48.142;16.392;2024-01-30T16:48:27;4.2;;4.3;3.9;;;;;;
85348;SPS30;75763;48.142;16.392;2024-01-30T16:53:27;3.9;;4.0;3.7;;;;;;
85348;SPS30;75763;48.142;16.392;2024-01-30T16:58:27;4.2;;4.3;4.0;;;;;;
85348;SPS30;75763;48.142;16.392;2024-01-30T17:03:27;4.0;;4.1;3.8;;;;;;
85348;SPS30;75763;48.142;16.392;2024-01-30T17:08:27;4.5;;4.6;4.3;;;;;;
85348;SPS30;75763;48.142;16.392;2024-01-30T17:13:27;4.0;;4.0;3.7;;;;;;
85348;SPS30;75763;48.142;16.392;2024-01-30T17:18:27;3.9;;4.0;3.7;;;;;;
85348;SPS30;75763;48.142;16.392;2024-01-30T17:23:27;4.1;;4.1;3.8;;;;;;
85348;SPS30;75763;48.142;16.392;2024-01-30T17:28:27;3.6;;3.7;3.4;;;;;;
85348;SPS30;75763;48.142;16.392;2024-01-30T17:33:27;5.3;;5.4;4.9;;;;;;
85348;SPS30;75763;48.142;16.392;2024-01-30T17:38:27;4.5;;4.7;4.2;;;;;;
85348;SPS30;75763;48.142;16.392;2024-01-30T17:43:27;4.3;;4.4;4.1;;;;;;
85348;SPS30;75763;48.142;16.392;2024-01-30T17:48:27;4.5;;4.6;4.3;;;;;;
85348;SPS30;75763;48.142;16.392;2024-01-30T17:53:27;4.2;;4.3;3.9;;;;;;
85348;SPS30;75763;48.142;16.392;2024-01-30T17:58:27;4.8;;4.9;4.4;;;;;;
85348;SPS30;75763;48.142;16.392;2024-01-30T18:03:27;4.4;;4.5;4.1;;;;;;
85348;SPS30;75763;48.142;16.392;2024-01-30T18:08:27;4.9;;4.9;4.6;;;;;;
85348;SPS30;75763;48.142;16.392;2024-01-30T18:13:27;4.6;;4.7;4.3;;;;;;
85348;SPS30;75763;48.142;16.392;2024-01-30T18:18:27;4.9;;5.0;4.6;;;;;;
85348;SPS30;75763;48.142;16.392;2024-01-30T18:23:27;5.4;;5.6;5.1;;;;;;
85348;SPS30;75763;48.142;16.392;2024-01-30T18:28:27;5.6;;5.8;5.3;;;;;;
85348;SPS30;75763;48.142;16.392;2024-01-30T18:33:27;5.1;;5.2;4.7;;;;;;
85348;SPS30;75763;48.142;16.392;2024-01-30T18:38:27;5.9;;6.1;5.5;;;;;;
85348;SPS30;75763;48.142;16.392;2024-01-30T18:43:27;5.8;;6.0;5.4;;;;;;
85348;SPS30;75763;48.142;16.392;2024-01-30T18:48:28;6.2;;6.3;5.8;;;;;;
85348;SPS30;75763;48.142;16.392;2024-01-30T18:53:28;5.5;;5.6;5.1;;;;;;
85348;SPS30;75763;48.142;16.392;2024-01-30T18:58:28;5.4;;5.6;5.0;;;;;;
85348;SPS30;75763;48.142;16.392;2024-01-30T19:03:28;5.6;;5.7;5.2;;;;;;
85348;SPS30;75763;48.142;16.392;2024-01-30T19:08:27;5.2;;5.3;4.9;;;;;;
85348;SPS30;75763;48.142;16.392;2024-01-30T19:13:28;6.2;;6.4;5.8;;;;;;
85348;SPS30;75763;48.142;16.392;2024-01-30T19:18:28;4.7;;4.8;4.4;;;;;;
85348;SPS30;75763;48.142;16.392;2024-01-30T19:23:28;5.9;;6.0;5.5;;;;;;
85348;SPS30;75763;48.142;16.392;2024-01-30T19:28:28;5.6;;5.7;5.3;;;;;;
85348;SPS30;75763;48.142;16.392;2024-01-30T19:33:28;4.8;;4.9;4.5;;;;;;
85348;SPS30;75763;48.142;16.392;2024-01-30T19:38:28;5.2;;5.3;4.9;;;;;;
85348;SPS30;75763;48.142;16.392;2024-01-30T19:43:28;6.0;;6.2;5.6;;;;;;
85348;SPS30;75763;48.142;16.392;2024-01-30T19:48:28;6.8;;6.9;6.3;;;;;;
85348;SPS30;75763;48.142;16.392;2024-01-30T19:53:28;6.0;;6.1;5.6;;;;;;
85348;SPS30;75763;48.142;16.392;2024-01-30T19:58:27;5.1;;5.2;4.7;;;;;;
85348;SPS30;75763;48.142;16.392;2024-01-30T20:03:28;5.7;;5.9;5.3;;;;;;
85348;SPS30;75763;48.142;16.392;2024-01-30T20:08:27;5.1;;5.2;4.7;;;;;;
85348;SPS30;75763;48.142;16.392;2024-01-30T20:13:27;6.2;;6.3;5.9;;;;;;
85348;SPS30;75763;48.142;16.392;2024-01-30T20:18:27;5.6;;5.7;5.2;;;;;;
85348;SPS30;75763;48.142;16.392;2024-01-30T20:23:27;6.1;;6.2;5.7;;;;;;
85348;SPS30;75763;48.142;16.392;2024-01-30T20:28:27;5.7;;5.9;5.4;;;;;;
85348;SPS30;75763;48.142;16.392;2024-01-30T20:33:27;6.0;;6.2;5.5;;;;;;
85348;SPS30;75763;48.142;16.392;2024-01-30T20:38:28;6.1;;6.2;5.7;;;;;;
85348;SPS30;75763;48.142;16.392;2024-01-30T20:43:28;5.4;;5.5;5.0;;;;;;
85348;SPS30;75763;48.142;16.392;2024-01-30T20:48:28;6.0;;6.2;5.6;;;;;;
85348;SPS30;75763;48.142;16.392;2024-01-30T20:53:27;5.6;;5.7;5.2;;;;;;
85348;SPS30;75763;48.142;16.392;2024-01-30T20:58:28;7.3;;7.5;6.8;;;;;;
85348;SPS30;75763;48.142;16.392;2024-01-30T21:03:27;9.5;;9.7;8.9;;;;;;
85348;SPS30;75763;48.142;16.392;2024-01-30T21:08:28;5.8;;6.0;5.4;;;;;;
85348;SPS30;75763;48.142;16.392;2024-01-30T21:13:27;6.9;;7.1;6.4;;;;;;
85348;SPS30;75763;48.142;16.392;2024-01-30T21:18:27;6.7;;6.9;6.3;;;;;;
85348;SPS30;75763;48.142;16.392;2024-01-30T21:23:27;5.9;;6.1;5.5;;;;;;
85348;SPS30;75763;48.142;16.392;2024-01-30T21:28:27;7.2;;7.4;6.7;;;;;;
85348;SPS30;75763;48.142;16.392;2024-01-30T21:33:27;7.3;;7.5;6.9;;;;;;
85348;SPS30;75763;48.142;16.392;2024-01-30T21:38:27;6.5;;6.6;6.1;;;;;;
85348;SPS30;75763;48.142;16.392;2024-01-30T21:43:27;5.4;;5.5;5.1;;;;;;
85348;SPS30;75763;48.142;16.392;2024-01-30T21:48:27;5.3;;5.3;5.0;;;;;;
85348;SPS30;75763;48.142;16.392;2024-01-30T21:53:27;5.9;;6.0;5.5;;;;;;
85348;SPS30;75763;48.142;16.392;2024-01-30T21:58:27;5.6;;5.8;5.2;;;;;;
85348;SPS30;75763;48.142;16.392;2024-01-30T22:03:27;6.7;;6.8;6.2;;;;;;
85348;SPS30;75763;48.142;16.392;2024-01-30T22:08:27;6.2;;6.5;5.7;;;;;;
85348;SPS30;75763;48.142;16.392;2024-01-30T22:13:27;6.5;;6.7;6.1;;;;;;
85348;SPS30;75763;48.142;16.392;2024-01-30T22:18:27;6.4;;6.6;6.0;;;;;;
85348;SPS30;75763;48.142;16.392;2024-01-30T22:23:27;5.3;;5.4;4.9;;;;;;
85348;SPS30;75763;48.142;16.392;2024-01-30T22:28:27;6.8;;7.0;6.4;;;;;;
85348;SPS30;75763;48.142;16.392;2024-01-30T22:33:27;5.4;;5.6;5.1;;;;;;
85348;SPS30;75763;48.142;16.392;2024-01-30T22:38:27;6.4;;6.6;6.0;;;;;;
85348;SPS30;75763;48.142;16.392;2024-01-30T22:43:27;11.9;;12.1;11.2;;;;;;
85348;SPS30;75763;48.142;16.392;2024-01-30T22:48:27;6.4;;6.5;6.0;;;;;;
85348;SPS30;75763;48.142;16.392;2024-01-30T22:53:27;6.4;;6.6;6.0;;;;;;
85348;SPS30;75763;48.142;16.392;2024-01-30T22:58:27;10.4;;10.8;9.7;;;;;;
85348;SPS30;75763;48.142;16.392;2024-01-30T23:03:27;9.2;;9.4;8.6;;;;;;
85348;SPS30;75763;48.142;16.392;2024-01-30T23:08:27;6.9;;7.1;6.4;;;;;;
85348;SPS30;75763;48.142;16.392;2024-01-30T23:13:27;7.4;;7.5;6.9;;;;;;
85348;SPS30;75763;48.142;16.392;2024-01-30T23:18:27;6.6;;6.7;6.2;;;;;;
85348;SPS30;75763;48.142;16.392;2024-01-30T23:23:27;6.2;;6.3;5.8;;;;;;
85348;SPS30;75763;48.142;16.392;2024-01-30T23:28:27;6.5;;6.7;6.1;;;;;;
85348;SPS30;75763;48.142;16.392;2024-01-30T23:33:27;6.5;;6.7;6.1;;;;;;
85348;SPS30;75763;48.142;16.392;2024-01-30T23:38:27;6.9;;7.1;6.4;;;;;;
85348;SPS30;75763;48.142;16.392;2024-01-30T23:43:27;7.1;;7.3;6.6;;;;;;
85348;SPS30;75763;48.142;16.392;2024-01-30T23:48:27;7.4;;7.6;6.9;;;;;;
85348;SPS30;75763;48.142;16.392;2024-01-30T23:53:27;6.3;;6.5;5.9;;;;;;
85348;SPS30;75763;48.142;16.392;2024-01-30T23:58:27;7.0;;7.2;6.5;;;;;;
